N86TN TXKF-KDPA
Flight info
| Callsign | N86TN |
|---|---|
| Flight time | N/A |
| Altitude | 32000 |
| Route | M080F320 SOMRR1 ENAPI M325 JNFOX/M080F340 M325 OXANA/N0465F340 AR8 ECG/N0463F360 DCT THEOO DCT MOL DCT TARCI J24 HVQ DCT HNN DCT BVT DCT |
| Aircraft | FA50/M-SBDE3FGHIM1RWXY/HB1 |
Departure
| Time | 2026-04-30 13:45 |
|---|---|
| Airport | L.F. Wade International Airport (TXKF) |
Arrival
| Time | N/A |
|---|---|
| Airport | Dupage Airport (KDPA) |
| Time | Latitude | Longitude | Altitude | Speed | Heading |
|---|---|---|---|---|---|
| 2026-04-30 13:36 | 32.36472 | -64.66773 | 20 ft | 0 kts | 205° |
| 2026-04-30 13:42 | 32.36365 | -64.66783 | 20 ft | 12 kts | 131° |
| 2026-04-30 13:43 | 32.36340 | -64.66681 | 21 ft | 13 kts | 100° |
| 2026-04-30 13:43 | 32.36321 | -64.66563 | 21 ft | 16 kts | 101° |
| 2026-04-30 13:43 | 32.36291 | -64.66437 | 21 ft | 15 kts | 112° |
| 2026-04-30 13:43 | 32.36237 | -64.66334 | 21 ft | 15 kts | 162° |
| 2026-04-30 13:44 | 32.36158 | -64.66339 | 22 ft | 5 kts | 205° |
| 2026-04-30 13:44 | 32.36148 | -64.66352 | 22 ft | 2 kts | 236° |
| 2026-04-30 13:44 | 32.36153 | -64.66414 | 22 ft | 26 kts | 281° |
| 2026-04-30 13:44 | 32.36228 | -64.66843 | 22 ft | 79 kts | 281° |
| 2026-04-30 13:45 | 32.36557 | -64.68685 | 255 ft | 133 kts | 284° |
| 2026-04-30 13:45 | 32.36454 | -64.69813 | 613 ft | 155 kts | 243° |
| 2026-04-30 13:45 | 32.35676 | -64.70795 | 1130 ft | 169 kts | 227° |
| 2026-04-30 13:46 | 32.34765 | -64.71793 | 1696 ft | 185 kts | 236° |
| 2026-04-30 13:46 | 32.34269 | -64.73205 | 2425 ft | 195 kts | 268° |
| 2026-04-30 13:46 | 32.34485 | -64.74811 | 3208 ft | 203 kts | 288° |
| 2026-04-30 13:46 | 32.35010 | -64.76435 | 3665 ft | 225 kts | 293° |
| 2026-04-30 13:47 | 32.35686 | -64.78338 | 3520 ft | 270 kts | 293° |
| 2026-04-30 13:47 | 32.36389 | -64.80315 | 4806 ft | 249 kts | 293° |
| 2026-04-30 13:47 | 32.37002 | -64.82250 | 5608 ft | 256 kts | 289° |
| 2026-04-30 13:47 | 32.37521 | -64.84280 | 6372 ft | 259 kts | 288° |
| 2026-04-30 13:48 | 32.38081 | -64.86335 | 7007 ft | 265 kts | 289° |
| 2026-04-30 13:48 | 32.38690 | -64.88403 | 7728 ft | 267 kts | 290° |
| 2026-04-30 13:48 | 32.39290 | -64.90477 | 8518 ft | 266 kts | 289° |
| 2026-04-30 13:48 | 32.39884 | -64.92570 | 9195 ft | 270 kts | 289° |
| 2026-04-30 13:49 | 32.40486 | -64.94693 | 9866 ft | 274 kts | 289° |
| 2026-04-30 13:49 | 32.41096 | -64.96838 | 10490 ft | 276 kts | 289° |
| 2026-04-30 13:49 | 32.41711 | -64.99000 | 11125 ft | 278 kts | 289° |
| 2026-04-30 13:49 | 32.42330 | -65.01178 | 11781 ft | 280 kts | 289° |
| 2026-04-30 13:50 | 32.42941 | -65.03332 | 12443 ft | 281 kts | 289° |
| 2026-04-30 13:50 | 32.44207 | -65.07797 | 13382 ft | 297 kts | 288° |
| 2026-04-30 13:50 | 32.44865 | -65.10122 | 14034 ft | 297 kts | 288° |
| 2026-04-30 13:51 | 32.45521 | -65.12439 | 14630 ft | 298 kts | 288° |
| 2026-04-30 13:51 | 32.46184 | -65.14785 | 15170 ft | 301 kts | 288° |
| 2026-04-30 13:51 | 32.46851 | -65.17144 | 15738 ft | 303 kts | 288° |
| 2026-04-30 13:51 | 32.47521 | -65.19518 | 16297 ft | 305 kts | 288° |
| 2026-04-30 13:52 | 32.48197 | -65.21915 | 16857 ft | 308 kts | 288° |
| 2026-04-30 13:52 | 32.48878 | -65.24331 | 17402 ft | 310 kts | 288° |
| 2026-04-30 13:52 | 32.49563 | -65.26762 | 17972 ft | 313 kts | 287° |
| 2026-04-30 13:52 | 32.50253 | -65.29213 | 18425 ft | 315 kts | 287° |
| 2026-04-30 13:53 | 32.50949 | -65.31689 | 18842 ft | 318 kts | 288° |
| 2026-04-30 13:53 | 32.51649 | -65.34180 | 19266 ft | 320 kts | 287° |
| 2026-04-30 13:53 | 32.52352 | -65.36684 | 19710 ft | 321 kts | 287° |
| 2026-04-30 13:53 | 32.53050 | -65.39173 | 20144 ft | 323 kts | 287° |
| 2026-04-30 13:54 | 32.53758 | -65.41702 | 20575 ft | 325 kts | 287° |
| 2026-04-30 13:54 | 32.54471 | -65.44247 | 21009 ft | 326 kts | 287° |
| 2026-04-30 13:54 | 32.55187 | -65.46808 | 21434 ft | 328 kts | 287° |
| 2026-04-30 13:54 | 32.55905 | -65.49377 | 21852 ft | 330 kts | 287° |
| 2026-04-30 13:55 | 32.56628 | -65.51966 | 22270 ft | 332 kts | 287° |
| 2026-04-30 13:55 | 32.57354 | -65.54570 | 22680 ft | 333 kts | 287° |
| 2026-04-30 13:55 | 32.58083 | -65.57184 | 23037 ft | 335 kts | 287° |
| 2026-04-30 13:55 | 32.58815 | -65.59815 | 23388 ft | 337 kts | 287° |
| 2026-04-30 13:56 | 32.59552 | -65.62464 | 23697 ft | 339 kts | 286° |
| 2026-04-30 13:56 | 32.60279 | -65.65132 | 23971 ft | 341 kts | 285° |
| 2026-04-30 13:56 | 32.60966 | -65.67821 | 24286 ft | 341 kts | 285° |
| 2026-04-30 13:56 | 32.61642 | -65.70522 | 24600 ft | 342 kts | 285° |
| 2026-04-30 13:57 | 32.62337 | -65.73224 | 24905 ft | 343 kts | 285° |
| 2026-04-30 13:57 | 32.63038 | -65.75933 | 25214 ft | 344 kts | 285° |
| 2026-04-30 13:57 | 32.63734 | -65.78650 | 25510 ft | 345 kts | 285° |
| 2026-04-30 13:57 | 32.64430 | -65.81378 | 25818 ft | 346 kts | 285° |
| 2026-04-30 13:58 | 32.65129 | -65.84112 | 26116 ft | 347 kts | 285° |
| 2026-04-30 13:58 | 32.66534 | -65.89611 | 26714 ft | 349 kts | 285° |
| 2026-04-30 13:58 | 32.67236 | -65.92370 | 27012 ft | 350 kts | 285° |
| 2026-04-30 13:59 | 32.67941 | -65.95139 | 27293 ft | 352 kts | 285° |
| 2026-04-30 13:59 | 32.68650 | -65.97928 | 27544 ft | 354 kts | 285° |
| 2026-04-30 13:59 | 32.69360 | -66.00718 | 27849 ft | 353 kts | 285° |
| 2026-04-30 13:59 | 32.70066 | -66.03499 | 28193 ft | 351 kts | 285° |
| 2026-04-30 14:00 | 32.70768 | -66.06273 | 28537 ft | 349 kts | 285° |
| 2026-04-30 14:00 | 32.72153 | -66.11740 | 29213 ft | 347 kts | 285° |
| 2026-04-30 14:00 | 32.72845 | -66.14476 | 29554 ft | 345 kts | 285° |
| 2026-04-30 14:01 | 32.73532 | -66.17200 | 29883 ft | 344 kts | 285° |
| 2026-04-30 14:01 | 32.74218 | -66.19918 | 30174 ft | 343 kts | 285° |
| 2026-04-30 14:01 | 32.74901 | -66.22628 | 30423 ft | 342 kts | 285° |
| 2026-04-30 14:01 | 32.75582 | -66.25331 | 30678 ft | 341 kts | 285° |
| 2026-04-30 14:02 | 32.76261 | -66.28035 | 30923 ft | 341 kts | 285° |
| 2026-04-30 14:02 | 32.76939 | -66.30731 | 31170 ft | 341 kts | 285° |
| 2026-04-30 14:02 | 32.77616 | -66.33426 | 31435 ft | 340 kts | 286° |
| 2026-04-30 14:02 | 32.78290 | -66.36115 | 31693 ft | 339 kts | 286° |
| 2026-04-30 14:03 | 32.78962 | -66.38800 | 31941 ft | 339 kts | 286° |
| 2026-04-30 14:03 | 32.79638 | -66.41501 | 31940 ft | 343 kts | 286° |
| 2026-04-30 14:03 | 32.81016 | -66.47012 | 31942 ft | 352 kts | 286° |
| 2026-04-30 14:04 | 32.82423 | -66.52656 | 31946 ft | 360 kts | 286° |
| 2026-04-30 14:04 | 32.83856 | -66.58417 | 31955 ft | 367 kts | 286° |
| 2026-04-30 14:05 | 32.85313 | -66.64285 | 31955 ft | 373 kts | 286° |
| 2026-04-30 14:05 | 32.86542 | -66.69244 | 31957 ft | 378 kts | 286° |
| 2026-04-30 14:06 | 32.89034 | -66.79327 | 31956 ft | 386 kts | 286° |
| 2026-04-30 14:07 | 32.91072 | -66.87608 | 31954 ft | 392 kts | 286° |
| 2026-04-30 14:08 | 32.93374 | -66.96988 | 31950 ft | 398 kts | 286° |
| 2026-04-30 14:08 | 32.95708 | -67.06531 | 31949 ft | 402 kts | 285° |
| 2026-04-30 14:09 | 32.97271 | -67.12945 | 31952 ft | 405 kts | 285° |
| 2026-04-30 14:10 | 32.99630 | -67.22650 | 31951 ft | 408 kts | 285° |
| 2026-04-30 14:10 | 33.01206 | -67.29159 | 31945 ft | 410 kts | 285° |
| 2026-04-30 14:11 | 33.02786 | -67.35694 | 31947 ft | 411 kts | 285° |
| 2026-04-30 14:11 | 33.04364 | -67.42246 | 31948 ft | 412 kts | 285° |
| 2026-04-30 14:12 | 33.05946 | -67.48822 | 31947 ft | 413 kts | 285° |
| 2026-04-30 14:12 | 33.07526 | -67.55414 | 31945 ft | 414 kts | 285° |
| 2026-04-30 14:13 | 33.09107 | -67.62016 | 31945 ft | 414 kts | 285° |
| 2026-04-30 14:13 | 33.10673 | -67.68586 | 31945 ft | 415 kts | 285° |
| 2026-04-30 14:14 | 33.12250 | -67.75208 | 31946 ft | 415 kts | 285° |
| 2026-04-30 14:14 | 33.13824 | -67.81840 | 31943 ft | 415 kts | 285° |
| 2026-04-30 14:15 | 33.15395 | -67.88477 | 31944 ft | 416 kts | 285° |
| 2026-04-30 14:15 | 33.16964 | -67.95120 | 31939 ft | 416 kts | 285° |
| 2026-04-30 14:16 | 33.18529 | -68.01766 | 31941 ft | 416 kts | 285° |
| 2026-04-30 14:16 | 33.20091 | -68.08416 | 31940 ft | 416 kts | 285° |
| 2026-04-30 14:17 | 33.21471 | -68.15124 | 31942 ft | 416 kts | 281° |
| 2026-04-30 14:17 | 33.22560 | -68.21922 | 31936 ft | 417 kts | 282° |
| 2026-04-30 14:18 | 33.23809 | -68.28676 | 31935 ft | 417 kts | 281° |
| 2026-04-30 14:18 | 33.25561 | -68.38839 | 31933 ft | 416 kts | 282° |
| 2026-04-30 14:19 | 33.27328 | -68.49002 | 31932 ft | 416 kts | 281° |
| 2026-04-30 14:20 | 33.28506 | -68.55779 | 31933 ft | 416 kts | 281° |
| 2026-04-30 14:20 | 33.30258 | -68.65942 | 31933 ft | 416 kts | 281° |
| 2026-04-30 14:21 | 33.31421 | -68.72718 | 31934 ft | 416 kts | 281° |